sensor_id;sensor_type;location;lat;lon;timestamp;temperature;humidity
56308;DHT22;42217;50.422;7.210;2023-05-10T00:00:13;11.50;99.90
56308;DHT22;42217;50.422;7.210;2023-05-10T00:02:39;11.60;99.90
56308;DHT22;42217;50.422;7.210;2023-05-10T00:05:06;11.50;99.90
56308;DHT22;42217;50.422;7.210;2023-05-10T00:07:32;11.50;99.90
56308;DHT22;42217;50.422;7.210;2023-05-10T00:09:57;11.50;99.90
56308;DHT22;42217;50.422;7.210;2023-05-10T00:12:23;11.40;99.90
56308;DHT22;42217;50.422;7.210;2023-05-10T00:14:49;11.40;99.90
56308;DHT22;42217;50.422;7.210;2023-05-10T00:17:14;11.40;99.90
56308;DHT22;42217;50.422;7.210;2023-05-10T00:19:40;11.50;99.90
56308;DHT22;42217;50.422;7.210;2023-05-10T00:22:05;11.50;99.90
56308;DHT22;42217;50.422;7.210;2023-05-10T00:24:31;11.50;99.90
56308;DHT22;42217;50.422;7.210;2023-05-10T00:26:57;11.50;99.90
56308;DHT22;42217;50.422;7.210;2023-05-10T00:29:22;11.60;99.90
56308;DHT22;42217;50.422;7.210;2023-05-10T00:31:48;11.60;99.90
56308;DHT22;42217;50.422;7.210;2023-05-10T00:34:14;11.60;99.90
56308;DHT22;42217;50.422;7.210;2023-05-10T00:36:40;11.60;99.90
56308;DHT22;42217;50.422;7.210;2023-05-10T00:39:06;11.50;99.90
56308;DHT22;42217;50.422;7.210;2023-05-10T00:41:31;11.60;99.90
56308;DHT22;42217;50.422;7.210;2023-05-10T00:43:58;11.60;99.90
56308;DHT22;42217;50.422;7.210;2023-05-10T00:46:24;11.60;99.90
56308;DHT22;42217;50.422;7.210;2023-05-10T00:48:50;11.60;99.90
56308;DHT22;42217;50.422;7.210;2023-05-10T00:51:16;11.60;99.90
56308;DHT22;42217;50.422;7.210;2023-05-10T00:53:43;11.60;99.90
56308;DHT22;42217;50.422;7.210;2023-05-10T00:56:11;11.60;99.90
56308;DHT22;42217;50.422;7.210;2023-05-10T00:58:37;11.60;99.90
56308;DHT22;42217;50.422;7.210;2023-05-10T01:01:04;11.60;99.90
56308;DHT22;42217;50.422;7.210;2023-05-10T01:03:31;11.60;99.90
56308;DHT22;42217;50.422;7.210;2023-05-10T01:05:57;11.60;99.90
56308;DHT22;42217;50.422;7.210;2023-05-10T01:08:23;11.60;99.90
56308;DHT22;42217;50.422;7.210;2023-05-10T01:10:48;11.60;99.90
56308;DHT22;42217;50.422;7.210;2023-05-10T01:13:23;11.60;99.90
56308;DHT22;42217;50.422;7.210;2023-05-10T01:15:52;11.60;99.90
56308;DHT22;42217;50.422;7.210;2023-05-10T01:18:20;11.60;99.90
56308;DHT22;42217;50.422;7.210;2023-05-10T01:20:49;11.60;99.90
56308;DHT22;42217;50.422;7.210;2023-05-10T01:23:28;11.60;99.90
56308;DHT22;42217;50.422;7.210;2023-05-10T01:34:41;11.50;99.90
56308;DHT22;42217;50.422;7.210;2023-05-10T01:37:09;11.50;99.90
56308;DHT22;42217;50.422;7.210;2023-05-10T01:39:47;11.50;99.90
56308;DHT22;42217;50.422;7.210;2023-05-10T01:42:20;11.40;99.90
56308;DHT22;42217;50.422;7.210;2023-05-10T01:44:55;11.40;99.90
56308;DHT22;42217;50.422;7.210;2023-05-10T01:47:37;11.30;99.90
56308;DHT22;42217;50.422;7.210;2023-05-10T01:50:06;11.30;99.90
56308;DHT22;42217;50.422;7.210;2023-05-10T01:52:41;11.20;99.90
56308;DHT22;42217;50.422;7.210;2023-05-10T01:55:13;11.20;99.90
56308;DHT22;42217;50.422;7.210;2023-05-10T01:57:40;11.30;99.90
56308;DHT22;42217;50.422;7.210;2023-05-10T02:00:09;11.30;99.90
56308;DHT22;42217;50.422;7.210;2023-05-10T02:02:37;11.20;99.90
56308;DHT22;42217;50.422;7.210;2023-05-10T02:05:06;11.10;99.90
56308;DHT22;42217;50.422;7.210;2023-05-10T02:07:37;11.10;99.90
56308;DHT22;42217;50.422;7.210;2023-05-10T02:10:05;11.20;99.90
56308;DHT22;42217;50.422;7.210;2023-05-10T02:12:33;11.10;99.90
56308;DHT22;42217;50.422;7.210;2023-05-10T02:15:02;11.10;99.90
56308;DHT22;42217;50.422;7.210;2023-05-10T02:17:31;11.20;99.90
56308;DHT22;42217;50.422;7.210;2023-05-10T02:19:59;11.20;99.90
56308;DHT22;42217;50.422;7.210;2023-05-10T02:22:27;11.20;99.90
56308;DHT22;42217;50.422;7.210;2023-05-10T02:24:55;11.40;99.90
56308;DHT22;42217;50.422;7.210;2023-05-10T02:27:24;11.60;99.90
56308;DHT22;42217;50.422;7.210;2023-05-10T02:29:51;11.70;99.90
56308;DHT22;42217;50.422;7.210;2023-05-10T02:32:18;11.80;99.90
56308;DHT22;42217;50.422;7.210;2023-05-10T02:34:45;11.80;99.90
56308;DHT22;42217;50.422;7.210;2023-05-10T02:37:15;11.90;99.90
56308;DHT22;42217;50.422;7.210;2023-05-10T02:39:42;12.00;99.90
56308;DHT22;42217;50.422;7.210;2023-05-10T02:42:16;11.90;99.90
56308;DHT22;42217;50.422;7.210;2023-05-10T02:44:46;11.90;99.90
56308;DHT22;42217;50.422;7.210;2023-05-10T02:47:13;11.90;99.90
56308;DHT22;42217;50.422;7.210;2023-05-10T02:49:39;11.90;99.90
56308;DHT22;42217;50.422;7.210;2023-05-10T02:52:06;11.90;99.90
56308;DHT22;42217;50.422;7.210;2023-05-10T02:54:46;11.90;99.90
56308;DHT22;42217;50.422;7.210;2023-05-10T02:57:17;11.90;99.90
56308;DHT22;42217;50.422;7.210;2023-05-10T02:59:47;11.90;99.90
56308;DHT22;42217;50.422;7.210;2023-05-10T03:02:13;11.80;99.90
56308;DHT22;42217;50.422;7.210;2023-05-10T03:04:39;11.70;99.90
56308;DHT22;42217;50.422;7.210;2023-05-10T03:07:04;11.80;99.90
56308;DHT22;42217;50.422;7.210;2023-05-10T03:09:31;11.90;99.90
56308;DHT22;42217;50.422;7.210;2023-05-10T03:12:07;11.90;99.90
56308;DHT22;42217;50.422;7.210;2023-05-10T03:17:40;11.80;99.90
56308;DHT22;42217;50.422;7.210;2023-05-10T03:20:09;11.90;99.90
56308;DHT22;42217;50.422;7.210;2023-05-10T03:22:49;11.90;99.90
56308;DHT22;42217;50.422;7.210;2023-05-10T03:25:16;12.00;99.90
56308;DHT22;42217;50.422;7.210;2023-05-10T03:27:44;12.00;99.90
56308;DHT22;42217;50.422;7.210;2023-05-10T03:30:12;12.00;99.90
56308;DHT22;42217;50.422;7.210;2023-05-10T03:32:38;12.00;99.90
56308;DHT22;42217;50.422;7.210;2023-05-10T03:35:11;11.90;99.90
56308;DHT22;42217;50.422;7.210;2023-05-10T03:37:37;11.90;99.90
56308;DHT22;42217;50.422;7.210;2023-05-10T03:40:04;11.90;99.90
56308;DHT22;42217;50.422;7.210;2023-05-10T03:42:29;11.90;99.90
56308;DHT22;42217;50.422;7.210;2023-05-10T03:44:56;11.80;99.90
56308;DHT22;42217;50.422;7.210;2023-05-10T03:47:21;11.90;99.90
56308;DHT22;42217;50.422;7.210;2023-05-10T03:49:47;11.90;99.90
56308;DHT22;42217;50.422;7.210;2023-05-10T03:52:13;11.90;99.90
56308;DHT22;42217;50.422;7.210;2023-05-10T03:54:38;11.90;99.90
56308;DHT22;42217;50.422;7.210;2023-05-10T03:57:04;12.00;99.90
56308;DHT22;42217;50.422;7.210;2023-05-10T03:59:30;12.00;99.90
56308;DHT22;42217;50.422;7.210;2023-05-10T04:01:55;12.00;99.90
56308;DHT22;42217;50.422;7.210;2023-05-10T04:04:21;11.90;99.90
56308;DHT22;42217;50.422;7.210;2023-05-10T04:06:48;11.90;99.90
56308;DHT22;42217;50.422;7.210;2023-05-10T04:09:14;11.90;99.90
56308;DHT22;42217;50.422;7.210;2023-05-10T04:11:40;12.00;99.90
56308;DHT22;42217;50.422;7.210;2023-05-10T04:14:06;12.00;99.90
56308;DHT22;42217;50.422;7.210;2023-05-10T04:16:31;12.00;99.90
56308;DHT22;42217;50.422;7.210;2023-05-10T04:18:57;12.10;99.90
56308;DHT22;42217;50.422;7.210;2023-05-10T04:21:23;12.10;99.90
56308;DHT22;42217;50.422;7.210;2023-05-10T04:23:48;12.10;99.90
56308;DHT22;42217;50.422;7.210;2023-05-10T04:26:14;12.10;99.90
56308;DHT22;42217;50.422;7.210;2023-05-10T04:28:40;12.10;99.90
56308;DHT22;42217;50.422;7.210;2023-05-10T04:31:08;12.10;99.90
56308;DHT22;42217;50.422;7.210;2023-05-10T04:33:34;12.10;99.90
56308;DHT22;42217;50.422;7.210;2023-05-10T04:36:01;12.20;99.90
56308;DHT22;42217;50.422;7.210;2023-05-10T04:38:27;12.20;99.90
56308;DHT22;42217;50.422;7.210;2023-05-10T04:40:53;12.20;99.90
56308;DHT22;42217;50.422;7.210;2023-05-10T04:43:19;12.20;99.90
56308;DHT22;42217;50.422;7.210;2023-05-10T04:45:45;12.20;99.90
56308;DHT22;42217;50.422;7.210;2023-05-10T04:48:11;12.30;99.90
56308;DHT22;42217;50.422;7.210;2023-05-10T04:50:38;12.30;99.90
56308;DHT22;42217;50.422;7.210;2023-05-10T04:53:04;12.20;99.90
56308;DHT22;42217;50.422;7.210;2023-05-10T04:55:30;12.30;99.90
56308;DHT22;42217;50.422;7.210;2023-05-10T04:57:56;12.30;99.90
56308;DHT22;42217;50.422;7.210;2023-05-10T05:00:23;12.20;99.90
56308;DHT22;42217;50.422;7.210;2023-05-10T05:02:48;12.20;99.90
56308;DHT22;42217;50.422;7.210;2023-05-10T05:05:14;12.20;99.90
56308;DHT22;42217;50.422;7.210;2023-05-10T05:07:40;12.20;99.90
56308;DHT22;42217;50.422;7.210;2023-05-10T05:10:07;12.30;99.90
56308;DHT22;42217;50.422;7.210;2023-05-10T05:12:33;12.30;99.90
56308;DHT22;42217;50.422;7.210;2023-05-10T05:14:58;12.30;99.90
56308;DHT22;42217;50.422;7.210;2023-05-10T05:17:24;12.30;99.90
56308;DHT22;42217;50.422;7.210;2023-05-10T05:19:50;12.20;99.90
56308;DHT22;42217;50.422;7.210;2023-05-10T05:22:15;12.20;99.90
56308;DHT22;42217;50.422;7.210;2023-05-10T05:24:41;12.10;99.90
56308;DHT22;42217;50.422;7.210;2023-05-10T05:27:07;12.10;99.90
56308;DHT22;42217;50.422;7.210;2023-05-10T05:29:33;12.00;99.90
56308;DHT22;42217;50.422;7.210;2023-05-10T05:31:59;11.90;99.90
56308;DHT22;42217;50.422;7.210;2023-05-10T05:34:25;11.90;99.90
56308;DHT22;42217;50.422;7.210;2023-05-10T05:36:51;11.90;99.90
56308;DHT22;42217;50.422;7.210;2023-05-10T05:39:17;11.90;99.90
56308;DHT22;42217;50.422;7.210;2023-05-10T05:41:42;11.90;99.90
56308;DHT22;42217;50.422;7.210;2023-05-10T05:44:08;11.90;99.90
56308;DHT22;42217;50.422;7.210;2023-05-10T05:46:35;12.00;99.90
56308;DHT22;42217;50.422;7.210;2023-05-10T05:49:00;12.10;99.90
56308;DHT22;42217;50.422;7.210;2023-05-10T05:51:26;12.20;99.90
56308;DHT22;42217;50.422;7.210;2023-05-10T05:53:52;12.30;99.90
56308;DHT22;42217;50.422;7.210;2023-05-10T05:56:18;12.40;99.90
56308;DHT22;42217;50.422;7.210;2023-05-10T05:58:52;12.50;99.90
56308;DHT22;42217;50.422;7.210;2023-05-10T06:01:18;12.50;99.90
56308;DHT22;42217;50.422;7.210;2023-05-10T06:03:43;12.50;99.90
56308;DHT22;42217;50.422;7.210;2023-05-10T06:06:09;12.60;99.90
56308;DHT22;42217;50.422;7.210;2023-05-10T06:08:34;12.60;99.90
56308;DHT22;42217;50.422;7.210;2023-05-10T06:11:01;12.70;99.90
56308;DHT22;42217;50.422;7.210;2023-05-10T06:13:26;12.80;99.90
56308;DHT22;42217;50.422;7.210;2023-05-10T06:15:58;12.90;99.90
56308;DHT22;42217;50.422;7.210;2023-05-10T06:18:24;12.90;99.90
56308;DHT22;42217;50.422;7.210;2023-05-10T06:20:50;13.00;99.90
56308;DHT22;42217;50.422;7.210;2023-05-10T06:23:15;13.10;99.90
56308;DHT22;42217;50.422;7.210;2023-05-10T06:25:41;13.20;99.90
56308;DHT22;42217;50.422;7.210;2023-05-10T06:28:07;13.30;99.90
56308;DHT22;42217;50.422;7.210;2023-05-10T06:30:32;13.20;99.90
56308;DHT22;42217;50.422;7.210;2023-05-10T06:32:58;13.30;99.90
56308;DHT22;42217;50.422;7.210;2023-05-10T06:35:24;13.40;99.90
56308;DHT22;42217;50.422;7.210;2023-05-10T06:37:50;13.40;99.90
56308;DHT22;42217;50.422;7.210;2023-05-10T06:40:15;13.50;99.90
56308;DHT22;42217;50.422;7.210;2023-05-10T06:42:41;13.60;99.90
56308;DHT22;42217;50.422;7.210;2023-05-10T06:45:07;13.60;99.90
56308;DHT22;42217;50.422;7.210;2023-05-10T06:47:34;13.60;99.90
56308;DHT22;42217;50.422;7.210;2023-05-10T06:49:59;13.60;99.90
56308;DHT22;42217;50.422;7.210;2023-05-10T06:52:25;13.60;99.90
56308;DHT22;42217;50.422;7.210;2023-05-10T06:54:51;13.60;99.90
56308;DHT22;42217;50.422;7.210;2023-05-10T06:57:17;13.60;99.90
56308;DHT22;42217;50.422;7.210;2023-05-10T06:59:43;13.50;99.90
56308;DHT22;42217;50.422;7.210;2023-05-10T07:02:09;13.60;99.90
56308;DHT22;42217;50.422;7.210;2023-05-10T07:04:34;13.60;99.90
56308;DHT22;42217;50.422;7.210;2023-05-10T07:07:00;13.60;99.90
56308;DHT22;42217;50.422;7.210;2023-05-10T07:09:26;13.60;99.90
56308;DHT22;42217;50.422;7.210;2023-05-10T07:11:51;13.60;99.90
56308;DHT22;42217;50.422;7.210;2023-05-10T07:14:17;13.70;99.90
56308;DHT22;42217;50.422;7.210;2023-05-10T07:16:43;13.70;99.90
56308;DHT22;42217;50.422;7.210;2023-05-10T07:19:09;13.70;99.90
56308;DHT22;42217;50.422;7.210;2023-05-10T07:21:36;13.60;99.90
56308;DHT22;42217;50.422;7.210;2023-05-10T07:24:01;13.70;99.90
56308;DHT22;42217;50.422;7.210;2023-05-10T07:26:28;13.60;99.90
56308;DHT22;42217;50.422;7.210;2023-05-10T07:28:54;13.60;99.90
56308;DHT22;42217;50.422;7.210;2023-05-10T07:31:20;13.70;99.90
56308;DHT22;42217;50.422;7.210;2023-05-10T07:33:46;13.70;99.90
56308;DHT22;42217;50.422;7.210;2023-05-10T07:36:12;13.90;99.90
56308;DHT22;42217;50.422;7.210;2023-05-10T07:38:38;14.00;99.90
56308;DHT22;42217;50.422;7.210;2023-05-10T07:41:03;14.00;99.90
56308;DHT22;42217;50.422;7.210;2023-05-10T07:43:29;13.90;99.90
56308;DHT22;42217;50.422;7.210;2023-05-10T07:45:54;14.00;99.90
56308;DHT22;42217;50.422;7.210;2023-05-10T07:48:22;14.10;99.90
56308;DHT22;42217;50.422;7.210;2023-05-10T07:50:48;14.30;99.90
56308;DHT22;42217;50.422;7.210;2023-05-10T07:53:14;14.20;99.90
56308;DHT22;42217;50.422;7.210;2023-05-10T07:55:39;14.20;99.90
56308;DHT22;42217;50.422;7.210;2023-05-10T07:58:05;14.20;99.90
56308;DHT22;42217;50.422;7.210;2023-05-10T08:00:31;14.40;99.90
56308;DHT22;42217;50.422;7.210;2023-05-10T08:02:57;14.60;99.90
56308;DHT22;42217;50.422;7.210;2023-05-10T08:05:22;14.60;99.90
56308;DHT22;42217;50.422;7.210;2023-05-10T08:07:48;14.60;99.90
56308;DHT22;42217;50.422;7.210;2023-05-10T08:10:14;14.70;99.90
56308;DHT22;42217;50.422;7.210;2023-05-10T08:12:40;14.60;99.90
56308;DHT22;42217;50.422;7.210;2023-05-10T08:15:06;14.60;99.90
56308;DHT22;42217;50.422;7.210;2023-05-10T08:17:32;14.50;99.90
56308;DHT22;42217;50.422;7.210;2023-05-10T08:19:58;14.50;99.90
56308;DHT22;42217;50.422;7.210;2023-05-10T08:22:24;14.60;99.90
56308;DHT22;42217;50.422;7.210;2023-05-10T08:24:50;14.50;99.90
56308;DHT22;42217;50.422;7.210;2023-05-10T08:27:15;14.50;99.90
56308;DHT22;42217;50.422;7.210;2023-05-10T08:29:41;14.70;99.90
56308;DHT22;42217;50.422;7.210;2023-05-10T08:32:07;14.80;99.90
56308;DHT22;42217;50.422;7.210;2023-05-10T08:34:32;14.70;99.90
56308;DHT22;42217;50.422;7.210;2023-05-10T08:36:58;14.60;99.90
56308;DHT22;42217;50.422;7.210;2023-05-10T08:39:24;14.70;99.90
56308;DHT22;42217;50.422;7.210;2023-05-10T08:41:51;14.70;99.90
56308;DHT22;42217;50.422;7.210;2023-05-10T08:44:19;14.90;99.90
56308;DHT22;42217;50.422;7.210;2023-05-10T08:46:46;15.10;99.90
56308;DHT22;42217;50.422;7.210;2023-05-10T08:49:17;15.10;99.90
56308;DHT22;42217;50.422;7.210;2023-05-10T08:51:50;15.10;99.90
56308;DHT22;42217;50.422;7.210;2023-05-10T08:54:17;15.00;99.90
56308;DHT22;42217;50.422;7.210;2023-05-10T08:56:43;15.00;99.90
56308;DHT22;42217;50.422;7.210;2023-05-10T08:59:08;14.90;99.90
56308;DHT22;42217;50.422;7.210;2023-05-10T09:01:35;15.00;99.90
56308;DHT22;42217;50.422;7.210;2023-05-10T09:04:02;15.20;99.90
56308;DHT22;42217;50.422;7.210;2023-05-10T09:06:28;15.20;99.90
56308;DHT22;42217;50.422;7.210;2023-05-10T09:08:54;15.10;99.90
56308;DHT22;42217;50.422;7.210;2023-05-10T09:11:20;15.20;99.90
56308;DHT22;42217;50.422;7.210;2023-05-10T09:13:48;15.10;99.90
56308;DHT22;42217;50.422;7.210;2023-05-10T09:16:13;15.00;99.90
56308;DHT22;42217;50.422;7.210;2023-05-10T09:18:39;15.00;99.90
56308;DHT22;42217;50.422;7.210;2023-05-10T09:21:05;15.00;99.90
56308;DHT22;42217;50.422;7.210;2023-05-10T09:23:31;15.20;99.90
56308;DHT22;42217;50.422;7.210;2023-05-10T09:26:07;15.40;99.90
56308;DHT22;42217;50.422;7.210;2023-05-10T09:28:34;15.60;99.90
56308;DHT22;42217;50.422;7.210;2023-05-10T09:31:02;15.60;99.90
56308;DHT22;42217;50.422;7.210;2023-05-10T09:33:27;15.70;99.90
56308;DHT22;42217;50.422;7.210;2023-05-10T09:35:53;15.70;99.90
56308;DHT22;42217;50.422;7.210;2023-05-10T09:38:19;15.70;99.90
56308;DHT22;42217;50.422;7.210;2023-05-10T09:40:52;15.60;99.90
56308;DHT22;42217;50.422;7.210;2023-05-10T09:43:21;15.60;99.90
56308;DHT22;42217;50.422;7.210;2023-05-10T09:45:48;15.60;99.90
56308;DHT22;42217;50.422;7.210;2023-05-10T09:48:17;15.90;99.90
56308;DHT22;42217;50.422;7.210;2023-05-10T09:50:42;15.90;99.90
56308;DHT22;42217;50.422;7.210;2023-05-10T09:53:08;16.00;99.90
56308;DHT22;42217;50.422;7.210;2023-05-10T09:55:42;16.40;99.90
56308;DHT22;42217;50.422;7.210;2023-05-10T09:58:10;16.30;99.90
56308;DHT22;42217;50.422;7.210;2023-05-10T10:00:37;16.50;99.90
56308;DHT22;42217;50.422;7.210;2023-05-10T10:03:04;16.80;99.90
56308;DHT22;42217;50.422;7.210;2023-05-10T10:05:34;17.10;99.90
56308;DHT22;42217;50.422;7.210;2023-05-10T10:08:04;17.10;99.90
56308;DHT22;42217;50.422;7.210;2023-05-10T10:10:32;17.60;99.90
56308;DHT22;42217;50.422;7.210;2023-05-10T10:12:58;18.40;99.90
56308;DHT22;42217;50.422;7.210;2023-05-10T10:15:25;18.90;99.90
56308;DHT22;42217;50.422;7.210;2023-05-10T10:17:52;19.00;99.90
56308;DHT22;42217;50.422;7.210;2023-05-10T10:20:19;18.70;99.90
56308;DHT22;42217;50.422;7.210;2023-05-10T10:22:45;18.60;99.90
56308;DHT22;42217;50.422;7.210;2023-05-10T10:25:13;18.40;99.90
56308;DHT22;42217;50.422;7.210;2023-05-10T10:30:50;17.50;99.90
56308;DHT22;42217;50.422;7.210;2023-05-10T10:33:50;17.70;99.90
56308;DHT22;42217;50.422;7.210;2023-05-10T10:36:17;17.60;99.90
56308;DHT22;42217;50.422;7.210;2023-05-10T10:41:33;17.80;99.90
56308;DHT22;42217;50.422;7.210;2023-05-10T10:49:26;18.20;99.90
56308;DHT22;42217;50.422;7.210;2023-05-10T10:54:41;17.70;99.90
56308;DHT22;42217;50.422;7.210;2023-05-10T10:57:14;17.60;99.90
56308;DHT22;42217;50.422;7.210;2023-05-10T10:59:43;17.70;99.90
56308;DHT22;42217;50.422;7.210;2023-05-10T11:02:10;18.20;99.90
56308;DHT22;42217;50.422;7.210;2023-05-10T11:04:42;18.70;99.90
56308;DHT22;42217;50.422;7.210;2023-05-10T11:07:19;18.90;99.90
56308;DHT22;42217;50.422;7.210;2023-05-10T11:09:47;18.80;99.90
56308;DHT22;42217;50.422;7.210;2023-05-10T11:12:12;18.90;99.90
56308;DHT22;42217;50.422;7.210;2023-05-10T11:14:38;19.00;99.90
56308;DHT22;42217;50.422;7.210;2023-05-10T11:17:31;18.80;99.90
56308;DHT22;42217;50.422;7.210;2023-05-10T11:20:10;18.90;99.90
56308;DHT22;42217;50.422;7.210;2023-05-10T11:22:54;18.70;99.90
56308;DHT22;42217;50.422;7.210;2023-05-10T11:25:27;18.90;99.90
56308;DHT22;42217;50.422;7.210;2023-05-10T11:27:53;19.00;99.90
56308;DHT22;42217;50.422;7.210;2023-05-10T11:30:19;18.70;99.90
56308;DHT22;42217;50.422;7.210;2023-05-10T11:32:45;18.40;99.90
56308;DHT22;42217;50.422;7.210;2023-05-10T11:35:11;18.30;99.90
56308;DHT22;42217;50.422;7.210;2023-05-10T11:37:39;18.40;99.90
56308;DHT22;42217;50.422;7.210;2023-05-10T11:40:09;18.10;99.90
56308;DHT22;42217;50.422;7.210;2023-05-10T11:42:38;18.10;99.90
56308;DHT22;42217;50.422;7.210;2023-05-10T11:45:04;17.80;99.90
56308;DHT22;42217;50.422;7.210;2023-05-10T11:47:30;17.90;99.90
56308;DHT22;42217;50.422;7.210;2023-05-10T11:49:57;18.10;99.90
56308;DHT22;42217;50.422;7.210;2023-05-10T11:52:23;18.40;99.90
56308;DHT22;42217;50.422;7.210;2023-05-10T11:54:52;18.60;99.90
56308;DHT22;42217;50.422;7.210;2023-05-10T11:57:19;18.40;99.90
56308;DHT22;42217;50.422;7.210;2023-05-10T11:59:46;18.40;99.90
56308;DHT22;42217;50.422;7.210;2023-05-10T12:02:13;18.50;99.90
56308;DHT22;42217;50.422;7.210;2023-05-10T12:04:39;19.00;99.90
56308;DHT22;42217;50.422;7.210;2023-05-10T12:07:05;19.30;99.90
56308;DHT22;42217;50.422;7.210;2023-05-10T12:09:31;19.30;99.90
56308;DHT22;42217;50.422;7.210;2023-05-10T12:11:57;19.30;99.90
56308;DHT22;42217;50.422;7.210;2023-05-10T12:14:22;19.80;99.90
56308;DHT22;42217;50.422;7.210;2023-05-10T12:16:49;19.80;99.90
56308;DHT22;42217;50.422;7.210;2023-05-10T12:19:19;19.60;99.90
56308;DHT22;42217;50.422;7.210;2023-05-10T12:21:45;19.50;99.90
56308;DHT22;42217;50.422;7.210;2023-05-10T12:24:12;19.60;99.90
56308;DHT22;42217;50.422;7.210;2023-05-10T12:26:39;19.60;99.90
56308;DHT22;42217;50.422;7.210;2023-05-10T12:29:15;19.50;99.90
56308;DHT22;42217;50.422;7.210;2023-05-10T12:31:58;19.70;99.90
56308;DHT22;42217;50.422;7.210;2023-05-10T12:36:52;19.80;99.90
56308;DHT22;42217;50.422;7.210;2023-05-10T12:39:18;20.20;99.90
56308;DHT22;42217;50.422;7.210;2023-05-10T12:41:43;21.00;99.90
56308;DHT22;42217;50.422;7.210;2023-05-10T12:44:09;21.50;99.90
56308;DHT22;42217;50.422;7.210;2023-05-10T12:46:35;22.10;99.90
56308;DHT22;42217;50.422;7.210;2023-05-10T12:49:01;22.20;99.90
56308;DHT22;42217;50.422;7.210;2023-05-10T12:51:26;22.10;99.90
56308;DHT22;42217;50.422;7.210;2023-05-10T12:53:52;21.90;99.90
56308;DHT22;42217;50.422;7.210;2023-05-10T12:56:18;21.30;99.90
56308;DHT22;42217;50.422;7.210;2023-05-10T12:58:43;21.30;99.90
56308;DHT22;42217;50.422;7.210;2023-05-10T13:01:13;21.20;99.90
56308;DHT22;42217;50.422;7.210;2023-05-10T13:03:39;20.40;99.90
56308;DHT22;42217;50.422;7.210;2023-05-10T13:06:05;19.40;99.90
56308;DHT22;42217;50.422;7.210;2023-05-10T13:08:31;17.60;1.00
56308;DHT22;42217;50.422;7.210;2023-05-10T13:11:02;16.40;59.20
56308;DHT22;42217;50.422;7.210;2023-05-10T13:13:28;16.10;60.60
56308;DHT22;42217;50.422;7.210;2023-05-10T13:15:54;15.90;46.20
56308;DHT22;42217;50.422;7.210;2023-05-10T13:18:19;15.90;76.90
56308;DHT22;42217;50.422;7.210;2023-05-10T13:20:45;16.00;54.00
56308;DHT22;42217;50.422;7.210;2023-05-10T13:23:11;16.10;71.90
56308;DHT22;42217;50.422;7.210;2023-05-10T13:25:37;16.00;82.00
56308;DHT22;42217;50.422;7.210;2023-05-10T13:28:03;15.80;90.80
56308;DHT22;42217;50.422;7.210;2023-05-10T13:30:28;15.40;99.90
56308;DHT22;42217;50.422;7.210;2023-05-10T13:32:54;15.20;99.90
56308;DHT22;42217;50.422;7.210;2023-05-10T13:35:20;15.20;99.90
56308;DHT22;42217;50.422;7.210;2023-05-10T13:37:46;15.20;99.90
56308;DHT22;42217;50.422;7.210;2023-05-10T13:40:12;15.60;99.90
56308;DHT22;42217;50.422;7.210;2023-05-10T13:42:37;15.80;99.90
56308;DHT22;42217;50.422;7.210;2023-05-10T13:45:03;16.20;99.90
56308;DHT22;42217;50.422;7.210;2023-05-10T13:47:29;16.70;99.90
56308;DHT22;42217;50.422;7.210;2023-05-10T13:49:55;17.00;90.90
56308;DHT22;42217;50.422;7.210;2023-05-10T13:52:21;17.60;70.00
56308;DHT22;42217;50.422;7.210;2023-05-10T13:54:47;17.70;26.20
56308;DHT22;42217;50.422;7.210;2023-05-10T13:57:12;17.50;52.50
56308;DHT22;42217;50.422;7.210;2023-05-10T13:59:39;17.30;90.40
56308;DHT22;42217;50.422;7.210;2023-05-10T14:02:05;17.40;85.00
56308;DHT22;42217;50.422;7.210;2023-05-10T14:04:31;17.50;31.10
56308;DHT22;42217;50.422;7.210;2023-05-10T14:06:57;17.50;40.20
56308;DHT22;42217;50.422;7.210;2023-05-10T14:09:23;17.50;50.80
56308;DHT22;42217;50.422;7.210;2023-05-10T14:11:48;17.50;37.40
56308;DHT22;42217;50.422;7.210;2023-05-10T14:14:14;17.30;58.80
56308;DHT22;42217;50.422;7.210;2023-05-10T14:16:44;17.20;85.50
56308;DHT22;42217;50.422;7.210;2023-05-10T14:19:10;17.20;89.80
56308;DHT22;42217;50.422;7.210;2023-05-10T14:21:36;16.90;88.60
56308;DHT22;42217;50.422;7.210;2023-05-10T14:24:02;16.60;61.80
56308;DHT22;42217;50.422;7.210;2023-05-10T14:26:28;16.30;82.40
56308;DHT22;42217;50.422;7.210;2023-05-10T14:28:53;16.00;92.70
56308;DHT22;42217;50.422;7.210;2023-05-10T14:31:19;16.30;94.00
56308;DHT22;42217;50.422;7.210;2023-05-10T14:33:46;16.40;78.90
56308;DHT22;42217;50.422;7.210;2023-05-10T14:36:12;16.50;69.60
56308;DHT22;42217;50.422;7.210;2023-05-10T14:38:39;16.60;81.90
56308;DHT22;42217;50.422;7.210;2023-05-10T14:41:04;16.70;67.30
56308;DHT22;42217;50.422;7.210;2023-05-10T14:43:30;16.80;70.60
56308;DHT22;42217;50.422;7.210;2023-05-10T14:45:56;16.80;65.10
56308;DHT22;42217;50.422;7.210;2023-05-10T14:48:22;17.00;62.20
56308;DHT22;42217;50.422;7.210;2023-05-10T14:50:48;17.00;58.20
56308;DHT22;42217;50.422;7.210;2023-05-10T14:53:15;17.20;56.40
56308;DHT22;42217;50.422;7.210;2023-05-10T14:55:40;17.20;58.10
56308;DHT22;42217;50.422;7.210;2023-05-10T14:58:06;17.30;57.60
56308;DHT22;42217;50.422;7.210;2023-05-10T15:00:32;17.40;51.10
56308;DHT22;42217;50.422;7.210;2023-05-10T15:02:57;17.40;56.20
56308;DHT22;42217;50.422;7.210;2023-05-10T15:05:23;17.20;44.80
56308;DHT22;42217;50.422;7.210;2023-05-10T15:07:49;17.20;46.40
56308;DHT22;42217;50.422;7.210;2023-05-10T15:10:15;17.30;53.50
56308;DHT22;42217;50.422;7.210;2023-05-10T15:12:40;17.50;46.80
56308;DHT22;42217;50.422;7.210;2023-05-10T15:15:07;17.60;69.10
56308;DHT22;42217;50.422;7.210;2023-05-10T15:17:33;17.40;67.10
56308;DHT22;42217;50.422;7.210;2023-05-10T15:19:59;16.70;81.00
56308;DHT22;42217;50.422;7.210;2023-05-10T15:22:25;16.30;98.00
56308;DHT22;42217;50.422;7.210;2023-05-10T15:24:51;16.00;97.60
56308;DHT22;42217;50.422;7.210;2023-05-10T15:27:16;15.80;95.60
56308;DHT22;42217;50.422;7.210;2023-05-10T15:29:42;15.60;98.80
56308;DHT22;42217;50.422;7.210;2023-05-10T15:32:08;15.70;93.80
56308;DHT22;42217;50.422;7.210;2023-05-10T15:34:33;16.00;88.10
56308;DHT22;42217;50.422;7.210;2023-05-10T15:36:59;16.10;83.40
56308;DHT22;42217;50.422;7.210;2023-05-10T15:39:25;16.20;70.70
56308;DHT22;42217;50.422;7.210;2023-05-10T15:41:51;16.00;74.50
56308;DHT22;42217;50.422;7.210;2023-05-10T15:44:16;15.90;86.90
56308;DHT22;42217;50.422;7.210;2023-05-10T15:46:43;15.80;99.90
56308;DHT22;42217;50.422;7.210;2023-05-10T15:49:09;15.90;96.60
56308;DHT22;42217;50.422;7.210;2023-05-10T15:51:35;16.10;89.90
56308;DHT22;42217;50.422;7.210;2023-05-10T15:54:00;16.00;87.50
56308;DHT22;42217;50.422;7.210;2023-05-10T15:56:31;16.00;89.80